JAF001 RJCC-RJFK
Flight info
| Callsign | JAF001 |
|---|---|
| Flight time | 2h 21m |
| Altitude | 38000 |
| Route | DALBI Y120 TAPPI Y12 ARIKA Y14 GOLDO Y381 KMC Y382 WAKIT Y282 POPPY V53 SUC Y757 SPICA |
| Aircraft | B77W/H-SDE1E2E3FGHIJ2J3J4J5M1RWXY/LB1D1 |
Departure
| Time | 2026-04-25 20:01 |
|---|---|
| Airport | New Chitose Airport (RJCC) |
Arrival
| Time | 2026-04-25 22:22 |
|---|---|
| Airport | Kagoshima Airport (RJFK) |
| Time | Latitude | Longitude | Altitude | Speed | Heading |
|---|---|---|---|---|---|
| 2026-04-25 19:29 | 42.78785 | 141.68267 | 73 ft | 0 kts | 263° |
| 2026-04-25 19:52 | 42.78787 | 141.68284 | 64 ft | 4 kts | 265° |
| 2026-04-25 19:52 | 42.78788 | 141.68320 | 73 ft | 4 kts | 272° |
| 2026-04-25 19:52 | 42.78785 | 141.68357 | 69 ft | 4 kts | 281° |
| 2026-04-25 19:53 | 42.78778 | 141.68391 | 62 ft | 4 kts | 298° |
| 2026-04-25 19:53 | 42.78762 | 141.68416 | 62 ft | 3 kts | 346° |
| 2026-04-25 19:53 | 42.78759 | 141.68417 | 73 ft | 0 kts | 352° |
| 2026-04-25 19:56 | 42.78770 | 141.68415 | 64 ft | 3 kts | 352° |
| 2026-04-25 19:56 | 42.78796 | 141.68410 | 65 ft | 4 kts | 351° |
| 2026-04-25 19:56 | 42.78830 | 141.68404 | 66 ft | 5 kts | 359° |
| 2026-04-25 19:56 | 42.78865 | 141.68419 | 62 ft | 6 kts | 27° |
| 2026-04-25 19:57 | 42.78893 | 141.68456 | 68 ft | 6 kts | 59° |
| 2026-04-25 19:57 | 42.78907 | 141.68510 | 64 ft | 6 kts | 71° |
| 2026-04-25 19:57 | 42.78922 | 141.68569 | 67 ft | 7 kts | 69° |
| 2026-04-25 19:57 | 42.78938 | 141.68633 | 69 ft | 7 kts | 81° |
| 2026-04-25 19:58 | 42.78927 | 141.68699 | 67 ft | 7 kts | 121° |
| 2026-04-25 19:58 | 42.78892 | 141.68752 | 68 ft | 8 kts | 135° |
| 2026-04-25 19:58 | 42.78843 | 141.68798 | 62 ft | 9 kts | 154° |
| 2026-04-25 19:58 | 42.78785 | 141.68820 | 66 ft | 0 kts | 168° |
| 2026-04-25 19:59 | 42.78783 | 141.68821 | 67 ft | 0 kts | 168° |
| 2026-04-25 19:59 | 42.78782 | 141.68821 | 67 ft | 0 kts | 168° |
| 2026-04-25 19:59 | 42.78779 | 141.68822 | 68 ft | 1 kts | 169° |
| 2026-04-25 20:00 | 42.78775 | 141.68822 | 73 ft | 1 kts | 172° |
| 2026-04-25 20:00 | 42.78764 | 141.68824 | 64 ft | 11 kts | 172° |
| 2026-04-25 20:00 | 42.77995 | 141.68954 | 66 ft | 134 kts | 172° |
| 2026-04-25 20:00 | 42.76857 | 141.69168 | 92 ft | 191 kts | 173° |
| 2026-04-25 20:01 | 42.74364 | 141.69532 | 2217 ft | 167 kts | 173° |
| 2026-04-25 20:01 | 42.73162 | 141.69748 | 2791 ft | 188 kts | 173° |
| 2026-04-25 20:01 | 42.71763 | 141.70044 | 3093 ft | 219 kts | 173° |
| 2026-04-25 20:02 | 42.70176 | 141.70382 | 3658 ft | 239 kts | 174° |
| 2026-04-25 20:02 | 42.68494 | 141.70734 | 4457 ft | 250 kts | 176° |
| 2026-04-25 20:02 | 42.66742 | 141.71091 | 5338 ft | 258 kts | 178° |
| 2026-04-25 20:02 | 42.64944 | 141.71452 | 6262 ft | 264 kts | 178° |
| 2026-04-25 20:03 | 42.63104 | 141.71818 | 7140 ft | 270 kts | 178° |
| 2026-04-25 20:03 | 42.61236 | 141.72188 | 8073 ft | 272 kts | 178° |
| 2026-04-25 20:03 | 42.59358 | 141.72406 | 8848 ft | 270 kts | 192° |
| 2026-04-25 20:03 | 42.57656 | 141.71562 | 9617 ft | 263 kts | 220° |
| 2026-04-25 20:04 | 42.56357 | 141.69805 | 10462 ft | 263 kts | 238° |
| 2026-04-25 20:04 | 42.55383 | 141.67595 | 10814 ft | 287 kts | 243° |
| 2026-04-25 20:04 | 42.54386 | 141.65092 | 11036 ft | 316 kts | 243° |
| 2026-04-25 20:04 | 42.53312 | 141.62345 | 11443 ft | 339 kts | 243° |
| 2026-04-25 20:05 | 42.52187 | 141.59480 | 12298 ft | 349 kts | 243° |
| 2026-04-25 20:05 | 42.51029 | 141.56550 | 13368 ft | 356 kts | 243° |
| 2026-04-25 20:05 | 42.49847 | 141.53581 | 14436 ft | 361 kts | 243° |
| 2026-04-25 20:05 | 42.48660 | 141.50615 | 15440 ft | 365 kts | 243° |
| 2026-04-25 20:06 | 42.47438 | 141.47573 | 16461 ft | 370 kts | 243° |
| 2026-04-25 20:06 | 42.46198 | 141.44494 | 17456 ft | 375 kts | 243° |
| 2026-04-25 20:06 | 42.44936 | 141.41369 | 18414 ft | 381 kts | 243° |
| 2026-04-25 20:06 | 42.43654 | 141.38197 | 19255 ft | 387 kts | 243° |
| 2026-04-25 20:07 | 42.42354 | 141.34985 | 20117 ft | 391 kts | 243° |
| 2026-04-25 20:07 | 42.41039 | 141.31741 | 20972 ft | 395 kts | 243° |
| 2026-04-25 20:07 | 42.39708 | 141.28460 | 21803 ft | 400 kts | 243° |
| 2026-04-25 20:07 | 42.38359 | 141.25138 | 22610 ft | 405 kts | 243° |
| 2026-04-25 20:08 | 42.36994 | 141.21779 | 23400 ft | 410 kts | 243° |
| 2026-04-25 20:08 | 42.35609 | 141.18376 | 24066 ft | 416 kts | 242° |
| 2026-04-25 20:08 | 42.34206 | 141.14933 | 24695 ft | 421 kts | 242° |
| 2026-04-25 20:08 | 42.32785 | 141.11452 | 25361 ft | 424 kts | 242° |
| 2026-04-25 20:09 | 42.31352 | 141.07948 | 26006 ft | 428 kts | 242° |
| 2026-04-25 20:09 | 42.29907 | 141.04417 | 26615 ft | 432 kts | 242° |
| 2026-04-25 20:09 | 42.28445 | 141.00848 | 27210 ft | 436 kts | 242° |
| 2026-04-25 20:09 | 42.26970 | 140.97251 | 27772 ft | 440 kts | 242° |
| 2026-04-25 20:10 | 42.25480 | 140.93621 | 28333 ft | 444 kts | 242° |
| 2026-04-25 20:10 | 42.23976 | 140.89961 | 28844 ft | 448 kts | 242° |
| 2026-04-25 20:10 | 42.22459 | 140.86272 | 29336 ft | 451 kts | 242° |
| 2026-04-25 20:10 | 42.20927 | 140.82556 | 29810 ft | 455 kts | 242° |
| 2026-04-25 20:11 | 42.19381 | 140.78818 | 30242 ft | 458 kts | 242° |
| 2026-04-25 20:11 | 42.17824 | 140.75069 | 30700 ft | 458 kts | 242° |
| 2026-04-25 20:11 | 42.16270 | 140.71334 | 31285 ft | 455 kts | 242° |
| 2026-04-25 20:11 | 42.14727 | 140.67627 | 31901 ft | 452 kts | 242° |
| 2026-04-25 20:12 | 42.13196 | 140.63948 | 32464 ft | 450 kts | 242° |
| 2026-04-25 20:12 | 42.11668 | 140.60281 | 32995 ft | 448 kts | 242° |
| 2026-04-25 20:12 | 42.10156 | 140.56685 | 33495 ft | 444 kts | 240° |
| 2026-04-25 20:12 | 42.09588 | 140.55509 | 33600 ft | 446 kts | 236° |
| 2026-04-25 20:13 | 42.05633 | 140.50899 | 34218 ft | 457 kts | 212° |
| 2026-04-25 20:13 | 42.02698 | 140.49251 | 34655 ft | 459 kts | 200° |
| 2026-04-25 20:13 | 41.99610 | 140.48123 | 35002 ft | 460 kts | 199° |
| 2026-04-25 20:13 | 41.97554 | 140.47402 | 35244 ft | 460 kts | 199° |
| 2026-04-25 20:14 | 41.94459 | 140.46319 | 35653 ft | 459 kts | 199° |
| 2026-04-25 20:14 | 41.90382 | 140.44860 | 36211 ft | 456 kts | 200° |
| 2026-04-25 20:14 | 41.88314 | 140.44105 | 36477 ft | 456 kts | 200° |
| 2026-04-25 20:14 | 41.84272 | 140.42606 | 36973 ft | 454 kts | 201° |
| 2026-04-25 20:15 | 41.81234 | 140.41469 | 37340 ft | 453 kts | 201° |
| 2026-04-25 20:15 | 41.78201 | 140.40333 | 37715 ft | 452 kts | 201° |
| 2026-04-25 20:15 | 41.76197 | 140.39583 | 37964 ft | 451 kts | 201° |
| 2026-04-25 20:15 | 41.72148 | 140.38069 | 38130 ft | 454 kts | 201° |
| 2026-04-25 20:16 | 41.66073 | 140.35804 | 38134 ft | 452 kts | 201° |
| 2026-04-25 20:16 | 41.61056 | 140.33940 | 38123 ft | 449 kts | 201° |
| 2026-04-25 20:17 | 41.55051 | 140.31716 | 38122 ft | 447 kts | 201° |
| 2026-04-25 20:17 | 41.49065 | 140.29513 | 38144 ft | 446 kts | 201° |
| 2026-04-25 20:18 | 41.43082 | 140.27316 | 38133 ft | 447 kts | 201° |
| 2026-04-25 20:18 | 41.37081 | 140.25114 | 38140 ft | 448 kts | 201° |
| 2026-04-25 20:19 | 41.31067 | 140.22913 | 38132 ft | 449 kts | 201° |
| 2026-04-25 20:19 | 41.25043 | 140.20709 | 38135 ft | 449 kts | 201° |
| 2026-04-25 20:20 | 41.19009 | 140.18507 | 38136 ft | 450 kts | 201° |
| 2026-04-25 20:20 | 41.12969 | 140.16309 | 38118 ft | 450 kts | 201° |
| 2026-04-25 20:21 | 41.06907 | 140.14190 | 38131 ft | 450 kts | 201° |
| 2026-04-25 20:21 | 41.00847 | 140.12114 | 38131 ft | 450 kts | 201° |
| 2026-04-25 20:22 | 40.95820 | 140.10389 | 38149 ft | 449 kts | 201° |
| 2026-04-25 20:22 | 40.88760 | 140.07961 | 38135 ft | 448 kts | 201° |
| 2026-04-25 20:23 | 40.82739 | 140.05893 | 38119 ft | 446 kts | 201° |
| 2026-04-25 20:23 | 40.76736 | 140.03832 | 38133 ft | 445 kts | 201° |
| 2026-04-25 20:24 | 40.70784 | 140.01792 | 38134 ft | 445 kts | 201° |
| 2026-04-25 20:24 | 40.64792 | 139.99743 | 38132 ft | 445 kts | 201° |
| 2026-04-25 20:25 | 40.58799 | 139.97698 | 38126 ft | 444 kts | 201° |
| 2026-04-25 20:25 | 40.52814 | 139.95660 | 38136 ft | 444 kts | 201° |
| 2026-04-25 20:26 | 40.46842 | 139.93608 | 38134 ft | 442 kts | 203° |
| 2026-04-25 20:26 | 40.41184 | 139.90716 | 38139 ft | 432 kts | 213° |
| 2026-04-25 20:27 | 40.35869 | 139.87072 | 38146 ft | 431 kts | 213° |
| 2026-04-25 20:27 | 40.30543 | 139.83461 | 38124 ft | 431 kts | 213° |
| 2026-04-25 20:28 | 40.25211 | 139.79870 | 38141 ft | 431 kts | 213° |
| 2026-04-25 20:28 | 40.19876 | 139.76289 | 38146 ft | 431 kts | 213° |
| 2026-04-25 20:29 | 40.14541 | 139.72714 | 38146 ft | 431 kts | 213° |
| 2026-04-25 20:29 | 40.09203 | 139.69142 | 38139 ft | 431 kts | 213° |
| 2026-04-25 20:30 | 40.03857 | 139.65578 | 38141 ft | 431 kts | 213° |
| 2026-04-25 20:30 | 39.98491 | 139.62077 | 38150 ft | 431 kts | 213° |
| 2026-04-25 20:31 | 39.93129 | 139.58606 | 38145 ft | 430 kts | 213° |
| 2026-04-25 20:31 | 39.87778 | 139.55142 | 38149 ft | 429 kts | 213° |
| 2026-04-25 20:32 | 39.82437 | 139.51684 | 38151 ft | 428 kts | 213° |
| 2026-04-25 20:32 | 39.77108 | 139.48237 | 38128 ft | 428 kts | 213° |
| 2026-04-25 20:33 | 39.71786 | 139.44803 | 38138 ft | 426 kts | 213° |
| 2026-04-25 20:33 | 39.67370 | 139.41955 | 38150 ft | 426 kts | 213° |
| 2026-04-25 20:34 | 39.61173 | 139.37967 | 38149 ft | 425 kts | 213° |
| 2026-04-25 20:34 | 39.55910 | 139.34587 | 38150 ft | 425 kts | 213° |
| 2026-04-25 20:35 | 39.50617 | 139.31193 | 38149 ft | 424 kts | 213° |
| 2026-04-25 20:35 | 39.45330 | 139.27811 | 38144 ft | 423 kts | 213° |
| 2026-04-25 20:36 | 39.40055 | 139.24439 | 38145 ft | 422 kts | 213° |
| 2026-04-25 20:36 | 39.34790 | 139.21080 | 38152 ft | 422 kts | 213° |
| 2026-04-25 20:37 | 39.29532 | 139.17731 | 38152 ft | 421 kts | 213° |
| 2026-04-25 20:37 | 39.24276 | 139.14389 | 38148 ft | 421 kts | 213° |
| 2026-04-25 20:38 | 39.19022 | 139.11055 | 38154 ft | 421 kts | 213° |
| 2026-04-25 20:38 | 39.13771 | 139.07727 | 38152 ft | 420 kts | 213° |
| 2026-04-25 20:39 | 39.08523 | 139.04407 | 38159 ft | 420 kts | 213° |
| 2026-04-25 20:39 | 39.04160 | 139.01652 | 38150 ft | 421 kts | 213° |
| 2026-04-25 20:40 | 38.98012 | 138.97774 | 38150 ft | 421 kts | 213° |
| 2026-04-25 20:40 | 38.92750 | 138.94463 | 38132 ft | 421 kts | 213° |
| 2026-04-25 20:41 | 38.87500 | 138.91165 | 38139 ft | 420 kts | 213° |
| 2026-04-25 20:41 | 38.82262 | 138.87879 | 38144 ft | 419 kts | 213° |
| 2026-04-25 20:42 | 38.77030 | 138.84602 | 38148 ft | 418 kts | 213° |
| 2026-04-25 20:42 | 38.71805 | 138.81334 | 38140 ft | 418 kts | 213° |
| 2026-04-25 20:43 | 38.66584 | 138.78075 | 38130 ft | 417 kts | 213° |
| 2026-04-25 20:43 | 38.61370 | 138.74828 | 38148 ft | 416 kts | 213° |
| 2026-04-25 20:44 | 38.56166 | 138.71588 | 38148 ft | 416 kts | 213° |
| 2026-04-25 20:44 | 38.50969 | 138.68358 | 38146 ft | 415 kts | 213° |
| 2026-04-25 20:45 | 38.45777 | 138.65138 | 38151 ft | 415 kts | 213° |
| 2026-04-25 20:45 | 38.40585 | 138.61923 | 38141 ft | 415 kts | 213° |
| 2026-04-25 20:46 | 38.35438 | 138.58743 | 38139 ft | 413 kts | 213° |
| 2026-04-25 20:46 | 38.30269 | 138.55551 | 38146 ft | 412 kts | 213° |
| 2026-04-25 20:47 | 38.25106 | 138.52368 | 38150 ft | 412 kts | 213° |
| 2026-04-25 20:47 | 38.19947 | 138.49193 | 38149 ft | 412 kts | 213° |
| 2026-04-25 20:48 | 38.14791 | 138.46023 | 38152 ft | 412 kts | 213° |
| 2026-04-25 20:48 | 38.09687 | 138.42768 | 38145 ft | 405 kts | 218° |
| 2026-04-25 20:49 | 38.05104 | 138.38739 | 38153 ft | 398 kts | 223° |
| 2026-04-25 20:49 | 38.00990 | 138.34133 | 38155 ft | 393 kts | 229° |
| 2026-04-25 20:50 | 37.97093 | 138.29287 | 38149 ft | 392 kts | 229° |
| 2026-04-25 20:50 | 37.93194 | 138.24439 | 38149 ft | 392 kts | 229° |
| 2026-04-25 20:51 | 37.89291 | 138.19609 | 38152 ft | 393 kts | 229° |
| 2026-04-25 20:51 | 37.85376 | 138.14783 | 38152 ft | 393 kts | 229° |
| 2026-04-25 20:52 | 37.82118 | 138.10775 | 38150 ft | 393 kts | 229° |
| 2026-04-25 20:52 | 37.77528 | 138.05138 | 38147 ft | 394 kts | 229° |
| 2026-04-25 20:53 | 37.73602 | 138.00326 | 38159 ft | 393 kts | 229° |
| 2026-04-25 20:53 | 37.69686 | 137.95534 | 38152 ft | 391 kts | 229° |
| 2026-04-25 20:54 | 37.65791 | 137.90774 | 38149 ft | 389 kts | 229° |
| 2026-04-25 20:54 | 37.61908 | 137.86035 | 38145 ft | 388 kts | 229° |
| 2026-04-25 20:55 | 37.58034 | 137.81314 | 38146 ft | 387 kts | 229° |
| 2026-04-25 20:55 | 37.54193 | 137.76640 | 38146 ft | 386 kts | 229° |
| 2026-04-25 20:56 | 37.50334 | 137.71952 | 38147 ft | 385 kts | 229° |
| 2026-04-25 20:56 | 37.46475 | 137.67272 | 38143 ft | 385 kts | 229° |
| 2026-04-25 20:57 | 37.42618 | 137.62600 | 38140 ft | 385 kts | 229° |
| 2026-04-25 20:57 | 37.38751 | 137.57922 | 38144 ft | 386 kts | 229° |
| 2026-04-25 20:58 | 37.34880 | 137.53248 | 38146 ft | 386 kts | 229° |
| 2026-04-25 20:58 | 37.31017 | 137.48594 | 38135 ft | 383 kts | 229° |
| 2026-04-25 20:59 | 37.27177 | 137.43970 | 38145 ft | 382 kts | 229° |
| 2026-04-25 20:59 | 37.23347 | 137.39366 | 38143 ft | 381 kts | 229° |
| 2026-04-25 21:00 | 37.20787 | 137.36292 | 38142 ft | 380 kts | 229° |
| 2026-04-25 21:01 | 37.13801 | 137.27920 | 38143 ft | 378 kts | 229° |
| 2026-04-25 21:01 | 37.09998 | 137.23371 | 38144 ft | 378 kts | 229° |
| 2026-04-25 21:02 | 37.06193 | 137.18827 | 38144 ft | 378 kts | 229° |
| 2026-04-25 21:02 | 37.02390 | 137.14292 | 38141 ft | 378 kts | 228° |
| 2026-04-25 21:03 | 36.98585 | 137.09761 | 38141 ft | 378 kts | 228° |
| 2026-04-25 21:03 | 36.95422 | 137.05999 | 38140 ft | 378 kts | 228° |
| 2026-04-25 21:04 | 36.91608 | 137.01470 | 38127 ft | 377 kts | 228° |
| 2026-04-25 21:04 | 36.87187 | 136.96225 | 38135 ft | 377 kts | 228° |
| 2026-04-25 21:05 | 36.83383 | 136.91720 | 38141 ft | 377 kts | 228° |
| 2026-04-25 21:05 | 36.80191 | 136.87948 | 38126 ft | 377 kts | 228° |
| 2026-04-25 21:06 | 36.76373 | 136.83450 | 38145 ft | 377 kts | 228° |
| 2026-04-25 21:06 | 36.72581 | 136.78986 | 38142 ft | 378 kts | 228° |
| 2026-04-25 21:07 | 36.68759 | 136.74491 | 38138 ft | 378 kts | 228° |
| 2026-04-25 21:07 | 36.64933 | 136.69998 | 38133 ft | 378 kts | 228° |
| 2026-04-25 21:08 | 36.61114 | 136.65519 | 38145 ft | 377 kts | 228° |
| 2026-04-25 21:08 | 36.57291 | 136.61043 | 38142 ft | 377 kts | 228° |
| 2026-04-25 21:09 | 36.51564 | 136.54346 | 38103 ft | 376 kts | 228° |
| 2026-04-25 21:09 | 36.47749 | 136.49894 | 38107 ft | 376 kts | 228° |
| 2026-04-25 21:10 | 36.43937 | 136.45449 | 38106 ft | 376 kts | 228° |
| 2026-04-25 21:10 | 36.40122 | 136.41010 | 38102 ft | 376 kts | 227° |
| 2026-04-25 21:11 | 36.36254 | 136.36638 | 38097 ft | 376 kts | 226° |
| 2026-04-25 21:11 | 36.32343 | 136.32317 | 38099 ft | 376 kts | 226° |
| 2026-04-25 21:12 | 36.28437 | 136.27996 | 38115 ft | 376 kts | 226° |
| 2026-04-25 21:12 | 36.25196 | 136.24405 | 38122 ft | 376 kts | 226° |
| 2026-04-25 21:13 | 36.20636 | 136.19354 | 38128 ft | 376 kts | 226° |
| 2026-04-25 21:13 | 36.16734 | 136.15038 | 38132 ft | 376 kts | 226° |
| 2026-04-25 21:14 | 36.12828 | 136.10731 | 38140 ft | 376 kts | 226° |
| 2026-04-25 21:14 | 36.08910 | 136.06432 | 38141 ft | 377 kts | 226° |
| 2026-04-25 21:15 | 36.04987 | 136.02128 | 38143 ft | 377 kts | 226° |
| 2026-04-25 21:15 | 36.01088 | 135.97854 | 38139 ft | 377 kts | 226° |
| 2026-04-25 21:16 | 35.97172 | 135.93570 | 38140 ft | 376 kts | 226° |
| 2026-04-25 21:16 | 35.93260 | 135.89295 | 38135 ft | 375 kts | 226° |
| 2026-04-25 21:17 | 35.89351 | 135.85029 | 38141 ft | 375 kts | 226° |
| 2026-04-25 21:17 | 35.85443 | 135.80768 | 38142 ft | 375 kts | 226° |
| 2026-04-25 21:18 | 35.81530 | 135.76509 | 38135 ft | 375 kts | 226° |
| 2026-04-25 21:18 | 35.77616 | 135.72254 | 38140 ft | 376 kts | 226° |
| 2026-04-25 21:19 | 35.73696 | 135.67997 | 38136 ft | 376 kts | 226° |
| 2026-04-25 21:19 | 35.69769 | 135.63739 | 38142 ft | 376 kts | 226° |
| 2026-04-25 21:20 | 35.66476 | 135.60172 | 38144 ft | 377 kts | 226° |
| 2026-04-25 21:20 | 35.61899 | 135.55227 | 38139 ft | 377 kts | 226° |
| 2026-04-25 21:21 | 35.57953 | 135.50974 | 38136 ft | 377 kts | 226° |
| 2026-04-25 21:21 | 35.54011 | 135.46728 | 38120 ft | 376 kts | 226° |
| 2026-04-25 21:22 | 35.50081 | 135.42502 | 38133 ft | 376 kts | 225° |
| 2026-04-25 21:22 | 35.46149 | 135.38278 | 38131 ft | 376 kts | 225° |
| 2026-04-25 21:23 | 35.42213 | 135.34052 | 38122 ft | 376 kts | 225° |
| 2026-04-25 21:23 | 35.38270 | 135.29829 | 38129 ft | 376 kts | 225° |
| 2026-04-25 21:24 | 35.34332 | 135.25618 | 38131 ft | 376 kts | 225° |
| 2026-04-25 21:24 | 35.30387 | 135.21401 | 38128 ft | 377 kts | 225° |
| 2026-04-25 21:25 | 35.26433 | 135.17180 | 38137 ft | 377 kts | 225° |
| 2026-04-25 21:25 | 35.22501 | 135.12988 | 38142 ft | 378 kts | 225° |
| 2026-04-25 21:26 | 35.18517 | 135.08748 | 38122 ft | 377 kts | 225° |
| 2026-04-25 21:26 | 35.14585 | 135.04569 | 38142 ft | 377 kts | 225° |
| 2026-04-25 21:27 | 35.10626 | 135.00367 | 38140 ft | 377 kts | 225° |
| 2026-04-25 21:27 | 35.06660 | 134.96160 | 38123 ft | 377 kts | 225° |
| 2026-04-25 21:28 | 35.02699 | 134.91959 | 38129 ft | 377 kts | 226° |
| 2026-04-25 21:28 | 34.98898 | 134.87566 | 38135 ft | 376 kts | 227° |
| 2026-04-25 21:29 | 34.95141 | 134.83123 | 38132 ft | 377 kts | 227° |
| 2026-04-25 21:29 | 34.91357 | 134.78695 | 38132 ft | 377 kts | 227° |
| 2026-04-25 21:30 | 34.87558 | 134.74278 | 38138 ft | 378 kts | 227° |
| 2026-04-25 21:30 | 34.84394 | 134.70604 | 38116 ft | 378 kts | 226° |
| 2026-04-25 21:31 | 34.79970 | 134.65483 | 38134 ft | 378 kts | 226° |
| 2026-04-25 21:31 | 34.75962 | 134.61329 | 38172 ft | 379 kts | 224° |
| 2026-04-25 21:32 | 34.71884 | 134.57267 | 38120 ft | 379 kts | 223° |
| 2026-04-25 21:32 | 34.67815 | 134.53206 | 38135 ft | 378 kts | 223° |
| 2026-04-25 21:33 | 34.63749 | 134.49143 | 38139 ft | 379 kts | 223° |
| 2026-04-25 21:33 | 34.59679 | 134.45082 | 38103 ft | 379 kts | 223° |
| 2026-04-25 21:34 | 34.55610 | 134.41032 | 38143 ft | 379 kts | 223° |
| 2026-04-25 21:34 | 34.51535 | 134.36977 | 38128 ft | 379 kts | 223° |
| 2026-04-25 21:35 | 34.47456 | 134.32922 | 38105 ft | 379 kts | 223° |
| 2026-04-25 21:35 | 34.43399 | 134.28899 | 38120 ft | 380 kts | 223° |
| 2026-04-25 21:36 | 34.39155 | 134.25052 | 38127 ft | 382 kts | 220° |
| 2026-04-25 21:36 | 34.34862 | 134.21279 | 38130 ft | 382 kts | 220° |
| 2026-04-25 21:37 | 34.31256 | 134.18103 | 38117 ft | 382 kts | 220° |
| 2026-04-25 21:37 | 34.26258 | 134.13698 | 38122 ft | 382 kts | 220° |
| 2026-04-25 21:38 | 34.21950 | 134.09928 | 38118 ft | 382 kts | 220° |
| 2026-04-25 21:38 | 34.17634 | 134.06183 | 38091 ft | 382 kts | 220° |
| 2026-04-25 21:39 | 34.13312 | 134.02435 | 38155 ft | 382 kts | 220° |
| 2026-04-25 21:39 | 34.08985 | 133.98682 | 38093 ft | 383 kts | 220° |
| 2026-04-25 21:40 | 34.04655 | 133.94934 | 38101 ft | 383 kts | 220° |
| 2026-04-25 21:40 | 34.00076 | 133.91604 | 38111 ft | 386 kts | 214° |
| 2026-04-25 21:41 | 33.95155 | 133.88918 | 38118 ft | 390 kts | 210° |
| 2026-04-25 21:41 | 33.90193 | 133.86397 | 38110 ft | 389 kts | 210° |
| 2026-04-25 21:42 | 33.85208 | 133.83846 | 38111 ft | 389 kts | 210° |
| 2026-04-25 21:42 | 33.80229 | 133.81297 | 38127 ft | 389 kts | 210° |
| 2026-04-25 21:43 | 33.75251 | 133.78745 | 38108 ft | 388 kts | 210° |
| 2026-04-25 21:43 | 33.70277 | 133.76208 | 38080 ft | 389 kts | 210° |
| 2026-04-25 21:44 | 33.65304 | 133.73664 | 38074 ft | 388 kts | 210° |
| 2026-04-25 21:45 | 33.57861 | 133.69864 | 38063 ft | 386 kts | 210° |
| 2026-04-25 21:45 | 33.53153 | 133.66910 | 38077 ft | 381 kts | 217° |
| 2026-04-25 21:46 | 33.48777 | 133.63309 | 38079 ft | 384 kts | 220° |
| 2026-04-25 21:46 | 33.44460 | 133.59518 | 38081 ft | 385 kts | 220° |
| 2026-04-25 21:47 | 33.40124 | 133.55729 | 38088 ft | 386 kts | 220° |
| 2026-04-25 21:47 | 33.35810 | 133.51975 | 38094 ft | 386 kts | 220° |
| 2026-04-25 21:48 | 33.31477 | 133.48203 | 38085 ft | 384 kts | 220° |
| 2026-04-25 21:48 | 33.27162 | 133.44429 | 38119 ft | 384 kts | 220° |
| 2026-04-25 21:49 | 33.22848 | 133.40659 | 38118 ft | 384 kts | 220° |
| 2026-04-25 21:49 | 33.18537 | 133.36897 | 38082 ft | 383 kts | 220° |
| 2026-04-25 21:50 | 33.14236 | 133.33149 | 38104 ft | 383 kts | 220° |
| 2026-04-25 21:50 | 33.09935 | 133.29407 | 38094 ft | 383 kts | 220° |
| 2026-04-25 21:51 | 33.05633 | 133.25672 | 38097 ft | 383 kts | 220° |
| 2026-04-25 21:51 | 33.01335 | 133.21943 | 38113 ft | 382 kts | 220° |
| 2026-04-25 21:52 | 32.97031 | 133.18212 | 38097 ft | 383 kts | 220° |
| 2026-04-25 21:52 | 32.92721 | 133.14481 | 38106 ft | 383 kts | 220° |
| 2026-04-25 21:53 | 32.88441 | 133.10779 | 38089 ft | 383 kts | 220° |
| 2026-04-25 21:53 | 32.84126 | 133.07051 | 38090 ft | 383 kts | 220° |
| 2026-04-25 21:54 | 32.79819 | 133.03312 | 38085 ft | 383 kts | 222° |
| 2026-04-25 21:54 | 32.76053 | 132.98902 | 38076 ft | 380 kts | 229° |
| 2026-04-25 21:55 | 32.72689 | 132.94056 | 38082 ft | 381 kts | 236° |
| 2026-04-25 21:55 | 32.69914 | 132.88687 | 38082 ft | 381 kts | 237° |
| 2026-04-25 21:56 | 32.67186 | 132.83282 | 38076 ft | 382 kts | 237° |
| 2026-04-25 21:56 | 32.64443 | 132.77885 | 38079 ft | 382 kts | 237° |
| 2026-04-25 21:57 | 32.61690 | 132.72501 | 38068 ft | 382 kts | 237° |
| 2026-04-25 21:57 | 32.59396 | 132.68029 | 38073 ft | 382 kts | 237° |
| 2026-04-25 21:58 | 32.56165 | 132.61743 | 38069 ft | 382 kts | 237° |
| 2026-04-25 21:58 | 32.53867 | 132.57278 | 38054 ft | 382 kts | 237° |
| 2026-04-25 21:59 | 32.51100 | 132.51907 | 38063 ft | 382 kts | 237° |
| 2026-04-25 21:59 | 32.48329 | 132.46537 | 38062 ft | 382 kts | 237° |
| 2026-04-25 22:00 | 32.44178 | 132.38506 | 38076 ft | 375 kts | 237° |
| 2026-04-25 22:00 | 32.41494 | 132.33321 | 38060 ft | 368 kts | 237° |
| 2026-04-25 22:01 | 32.38818 | 132.28161 | 38068 ft | 373 kts | 237° |
| 2026-04-25 22:01 | 32.36533 | 132.23761 | 38071 ft | 376 kts | 237° |
| 2026-04-25 22:02 | 32.33402 | 132.17738 | 37832 ft | 362 kts | 236° |
| 2026-04-25 22:02 | 32.32086 | 132.15210 | 37284 ft | 359 kts | 236° |
| 2026-04-25 22:02 | 32.30779 | 132.12700 | 36586 ft | 358 kts | 237° |
| 2026-04-25 22:03 | 32.29472 | 132.10193 | 35826 ft | 359 kts | 237° |
| 2026-04-25 22:03 | 32.28154 | 132.07667 | 34996 ft | 363 kts | 237° |
| 2026-04-25 22:03 | 32.26823 | 132.05115 | 34128 ft | 367 kts | 237° |
| 2026-04-25 22:03 | 32.25476 | 132.02536 | 33116 ft | 371 kts | 238° |
| 2026-04-25 22:04 | 32.24116 | 131.99933 | 32118 ft | 374 kts | 238° |
| 2026-04-25 22:04 | 32.22744 | 131.97309 | 31276 ft | 376 kts | 238° |
| 2026-04-25 22:04 | 32.21373 | 131.94687 | 30490 ft | 375 kts | 238° |
| 2026-04-25 22:04 | 32.20003 | 131.92068 | 29648 ft | 374 kts | 238° |
| 2026-04-25 22:05 | 32.18639 | 131.89461 | 28867 ft | 372 kts | 238° |
| 2026-04-25 22:05 | 32.17283 | 131.86872 | 28141 ft | 370 kts | 238° |
| 2026-04-25 22:05 | 32.15932 | 131.84297 | 27432 ft | 368 kts | 238° |
| 2026-04-25 22:05 | 32.14587 | 131.81735 | 26737 ft | 367 kts | 238° |
| 2026-04-25 22:06 | 32.13247 | 131.79183 | 26056 ft | 366 kts | 238° |
| 2026-04-25 22:06 | 32.11921 | 131.76659 | 25401 ft | 367 kts | 237° |
| 2026-04-25 22:06 | 32.10566 | 131.74081 | 24713 ft | 374 kts | 237° |
| 2026-04-25 22:06 | 32.09173 | 131.71433 | 24009 ft | 385 kts | 237° |
| 2026-04-25 22:07 | 32.07749 | 131.68727 | 23200 ft | 390 kts | 238° |
| 2026-04-25 22:07 | 32.06783 | 131.66890 | 22659 ft | 390 kts | 238° |
| 2026-04-25 22:07 | 32.04898 | 131.63310 | 21680 ft | 387 kts | 238° |
| 2026-04-25 22:07 | 32.03478 | 131.60611 | 20971 ft | 389 kts | 237° |
| 2026-04-25 22:08 | 32.02046 | 131.57890 | 20278 ft | 392 kts | 237° |
| 2026-04-25 22:08 | 32.00601 | 131.55148 | 19581 ft | 396 kts | 237° |
| 2026-04-25 22:08 | 31.99138 | 131.52376 | 18883 ft | 400 kts | 237° |
| 2026-04-25 22:08 | 31.97662 | 131.49584 | 18280 ft | 402 kts | 237° |
| 2026-04-25 22:09 | 31.96204 | 131.46805 | 17623 ft | 392 kts | 239° |
| 2026-04-25 22:09 | 31.95222 | 131.43826 | 16826 ft | 392 kts | 256° |
| 2026-04-25 22:09 | 31.94957 | 131.40646 | 16205 ft | 390 kts | 269° |
| 2026-04-25 22:09 | 31.95221 | 131.37486 | 15418 ft | 383 kts | 275° |
| 2026-04-25 22:10 | 31.95561 | 131.34395 | 14745 ft | 379 kts | 275° |
| 2026-04-25 22:10 | 31.95899 | 131.31327 | 14111 ft | 379 kts | 275° |
| 2026-04-25 22:10 | 31.96228 | 131.28247 | 13433 ft | 378 kts | 275° |
| 2026-04-25 22:10 | 31.96544 | 131.25177 | 12773 ft | 377 kts | 275° |
| 2026-04-25 22:11 | 31.96850 | 131.22111 | 12144 ft | 376 kts | 275° |
| 2026-04-25 22:11 | 31.97150 | 131.19063 | 11522 ft | 374 kts | 275° |
| 2026-04-25 22:11 | 31.97446 | 131.16026 | 10969 ft | 371 kts | 274° |
| 2026-04-25 22:11 | 31.97731 | 131.13107 | 10820 ft | 341 kts | 274° |
| 2026-04-25 22:12 | 31.97991 | 131.10474 | 10643 ft | 307 kts | 273° |
| 2026-04-25 22:12 | 31.98222 | 131.08100 | 10507 ft | 278 kts | 274° |
| 2026-04-25 22:12 | 31.98432 | 131.05948 | 10387 ft | 252 kts | 272° |
| 2026-04-25 22:12 | 31.98560 | 131.04619 | 10332 ft | 248 kts | 271° |
| 2026-04-25 22:13 | 31.98818 | 131.01767 | 10250 ft | 278 kts | 273° |
| 2026-04-25 22:13 | 31.99031 | 130.99482 | 10121 ft | 281 kts | 274° |
| 2026-04-25 22:13 | 31.99249 | 130.97207 | 9915 ft | 278 kts | 272° |
| 2026-04-25 22:13 | 31.99465 | 130.94939 | 9550 ft | 279 kts | 274° |
| 2026-04-25 22:14 | 31.99682 | 130.92670 | 9198 ft | 279 kts | 274° |
| 2026-04-25 22:14 | 31.99896 | 130.90404 | 8857 ft | 278 kts | 274° |
| 2026-04-25 22:14 | 32.00110 | 130.88140 | 8501 ft | 278 kts | 274° |
| 2026-04-25 22:14 | 32.00324 | 130.85875 | 8168 ft | 278 kts | 274° |
| 2026-04-25 22:15 | 32.00536 | 130.83610 | 7827 ft | 278 kts | 274° |
| 2026-04-25 22:15 | 32.00747 | 130.81349 | 7473 ft | 278 kts | 274° |
| 2026-04-25 22:15 | 32.00959 | 130.79086 | 7154 ft | 278 kts | 274° |
| 2026-04-25 22:16 | 32.01393 | 130.74414 | 5979 ft | 298 kts | 274° |
| 2026-04-25 22:16 | 32.01574 | 130.71980 | 5429 ft | 294 kts | 266° |
| 2026-04-25 22:16 | 32.01103 | 130.69745 | 4933 ft | 273 kts | 238° |
| 2026-04-25 22:16 | 32.00149 | 130.67858 | 4499 ft | 262 kts | 236° |
| 2026-04-25 22:17 | 31.99258 | 130.66060 | 4166 ft | 246 kts | 236° |
| 2026-04-25 22:17 | 31.98432 | 130.64377 | 3883 ft | 229 kts | 236° |
| 2026-04-25 22:17 | 31.97578 | 130.62871 | 3661 ft | 212 kts | 217° |
| 2026-04-25 22:17 | 31.96385 | 130.62160 | 3521 ft | 176 kts | 181° |
| 2026-04-25 22:18 | 31.95274 | 130.62160 | 3415 ft | 152 kts | 166° |
| 2026-04-25 22:18 | 31.94343 | 130.62508 | 3280 ft | 134 kts | 142° |
| 2026-04-25 22:18 | 31.93543 | 130.63079 | 3248 ft | 137 kts | 144° |
| 2026-04-25 22:18 | 31.92700 | 130.63604 | 3129 ft | 136 kts | 147° |
| 2026-04-25 22:19 | 31.91855 | 130.64099 | 3050 ft | 136 kts | 146° |
| 2026-04-25 22:19 | 31.91028 | 130.64662 | 2980 ft | 140 kts | 144° |
| 2026-04-25 22:19 | 31.90188 | 130.65241 | 2869 ft | 140 kts | 144° |
| 2026-04-25 22:19 | 31.89349 | 130.65820 | 2736 ft | 141 kts | 143° |
| 2026-04-25 22:20 | 31.88500 | 130.66403 | 2522 ft | 142 kts | 144° |
| 2026-04-25 22:20 | 31.87650 | 130.66984 | 2360 ft | 139 kts | 142° |
| 2026-04-25 22:20 | 31.86830 | 130.67540 | 2139 ft | 134 kts | 143° |
| 2026-04-25 22:20 | 31.86005 | 130.68097 | 1983 ft | 139 kts | 142° |
| 2026-04-25 22:21 | 31.85163 | 130.68675 | 1794 ft | 141 kts | 144° |
| 2026-04-25 22:21 | 31.84314 | 130.69246 | 1582 ft | 140 kts | 147° |
| 2026-04-25 22:21 | 31.83462 | 130.69813 | 1427 ft | 143 kts | 147° |
| 2026-04-25 22:21 | 31.82599 | 130.70379 | 1271 ft | 141 kts | 147° |
| 2026-04-25 22:22 | 31.81763 | 130.70973 | 1023 ft | 138 kts | 147° |
| 2026-04-25 22:22 | 31.80954 | 130.71499 | 911 ft | 127 kts | 145° |
| 2026-04-25 22:22 | 31.80223 | 130.72017 | 907 ft | 107 kts | 150° |
| 2026-04-25 22:22 | 31.79801 | 130.72300 | 905 ft | 43 kts | 151° |
| 2026-04-25 22:23 | 31.79607 | 130.72430 | 906 ft | 18 kts | 159° |
| 2026-04-25 22:23 | 31.79506 | 130.72375 | 900 ft | 21 kts | 240° |
| 2026-04-25 22:23 | 31.79524 | 130.72274 | 896 ft | 11 kts | 316° |
| 2026-04-25 22:23 | 31.79581 | 130.72227 | 896 ft | 10 kts | 330° |
| 2026-04-25 22:24 | 31.79646 | 130.72185 | 896 ft | 11 kts | 331° |
| 2026-04-25 22:24 | 31.79715 | 130.72140 | 896 ft | 11 kts | 330° |
| 2026-04-25 22:24 | 31.79785 | 130.72093 | 896 ft | 12 kts | 329° |
| 2026-04-25 22:24 | 31.79855 | 130.72044 | 896 ft | 12 kts | 329° |
| 2026-04-25 22:25 | 31.79925 | 130.71994 | 896 ft | 12 kts | 329° |
| 2026-04-25 22:25 | 31.79998 | 130.71942 | 897 ft | 12 kts | 329° |
| 2026-04-25 22:25 | 31.80072 | 130.71889 | 897 ft | 13 kts | 329° |
| 2026-04-25 22:25 | 31.80146 | 130.71837 | 897 ft | 8 kts | 329° |
| 2026-04-25 22:26 | 31.80179 | 130.71807 | 896 ft | 2 kts | 297° |
| 2026-04-25 22:26 | 31.80178 | 130.71786 | 896 ft | 4 kts | 263° |
| 2026-04-25 22:26 | 31.80165 | 130.71744 | 896 ft | 6 kts | 244° |
| 2026-04-25 22:26 | 31.80156 | 130.71722 | 895 ft | 2 kts | 242° |
| 2026-04-25 22:27 | 31.80146 | 130.71703 | 895 ft | 2 kts | 240° |
| 2026-04-25 22:27 | 31.80142 | 130.71694 | 895 ft | 2 kts | 239° |
| 2026-04-25 22:27 | 31.80139 | 130.71688 | 895 ft | 1 kts | 239° |
| 2026-04-25 22:27 | 31.80137 | 130.71685 | 895 ft | 0 kts | 239° |